createdAt,value
2022-11-02T00:00:21.749Z,0.60
2022-11-02T00:02:48.233Z,0.57
2022-11-02T00:05:15.295Z,0.40
2022-11-02T00:07:43.042Z,0.90
2022-11-02T00:10:10.716Z,0.70
2022-11-02T00:12:37.293Z,0.70
2022-11-02T00:15:04.781Z,1.08
2022-11-02T00:17:31.234Z,0.60
2022-11-02T00:19:57.724Z,1.15
2022-11-02T00:22:24.202Z,0.50
2022-11-02T00:24:50.650Z,0.90
2022-11-02T00:27:17.245Z,0.40
2022-11-02T00:29:43.751Z,0.50
2022-11-02T00:32:10.207Z,0.50
2022-11-02T00:34:36.877Z,0.38
2022-11-02T00:37:03.376Z,0.50
2022-11-02T00:39:29.858Z,0.40
2022-11-02T00:41:56.292Z,0.70
2022-11-02T00:44:22.747Z,0.50
2022-11-02T00:46:49.281Z,0.40
2022-11-02T00:49:15.844Z,0.50
2022-11-02T00:51:43.470Z,0.80
2022-11-02T00:54:10.016Z,0.35
2022-11-02T00:56:39.143Z,0.80
2022-11-02T00:59:05.686Z,0.95
2022-11-02T01:01:32.309Z,0.52
2022-11-02T01:03:58.920Z,0.50
2022-11-02T01:06:25.574Z,0.43
2022-11-02T01:08:52.043Z,0.80
2022-11-02T01:11:19.951Z,0.43
2022-11-02T01:13:46.774Z,0.75
2022-11-02T01:16:13.864Z,0.90
2022-11-02T01:18:40.486Z,0.50
2022-11-02T01:21:07.449Z,0.32
2022-11-02T01:23:37.941Z,0.57
2022-11-02T01:26:08.439Z,0.50
2022-11-02T01:28:35.112Z,0.70
2022-11-02T01:31:02.198Z,0.45
2022-11-02T01:33:28.813Z,0.75
2022-11-02T01:35:55.815Z,0.57
2022-11-02T01:38:22.350Z,0.88
2022-11-02T01:40:49.011Z,0.55
2022-11-02T01:43:22.609Z,1.67
2022-11-02T01:45:51.679Z,0.60
2022-11-02T01:48:19.633Z,0.80
2022-11-02T01:50:46.422Z,0.43
2022-11-02T01:53:13.077Z,0.90
2022-11-02T01:55:40.221Z,0.30
2022-11-02T01:58:10.332Z,1.05
2022-11-02T02:00:38.736Z,0.88
2022-11-02T02:03:09.699Z,0.43
2022-11-02T02:05:40.088Z,0.55
2022-11-02T02:08:08.331Z,0.80
2022-11-02T02:10:35.360Z,0.80
2022-11-02T02:13:01.912Z,0.30
2022-11-02T02:15:31.659Z,0.30
2022-11-02T02:18:03.715Z,0.55
2022-11-02T02:20:47.479Z,0.30
2022-11-02T02:23:32.561Z,0.47
2022-11-02T02:26:17.965Z,0.50
2022-11-02T02:29:07.713Z,0.30
2022-11-02T02:31:36.935Z,0.30
2022-11-02T02:34:12.973Z,0.80
2022-11-02T02:36:58.377Z,0.20
2022-11-02T02:39:31.253Z,0.30
2022-11-02T02:42:04.782Z,0.60
2022-11-02T02:44:33.531Z,0.50
2022-11-02T02:47:05.942Z,0.30
2022-11-02T02:49:38.127Z,0.45
2022-11-02T02:52:05.807Z,0.65
2022-11-02T02:54:43.265Z,0.43
2022-11-02T02:57:12.285Z,0.50
2022-11-02T02:59:46.094Z,0.73
2022-11-02T03:04:39.246Z,0.63
2022-11-02T03:07:05.781Z,0.28
2022-11-02T03:09:35.436Z,1.05
2022-11-02T03:12:01.985Z,1.33
2022-11-02T03:14:31.407Z,0.40
2022-11-02T03:17:23.901Z,1.20
2022-11-02T03:20:08.885Z,0.70
2022-11-02T03:22:41.514Z,0.70
2022-11-02T03:25:15.097Z,0.88
2022-11-02T03:27:48.867Z,1.13
2022-11-02T03:30:18.566Z,0.73
2022-11-02T03:33:02.806Z,0.45
2022-11-02T03:35:35.889Z,0.98
2022-11-02T03:38:06.867Z,0.50
2022-11-02T03:40:35.520Z,1.55
2022-11-02T03:43:03.239Z,1.30
2022-11-02T03:45:32.113Z,0.50
2022-11-02T03:48:05.276Z,0.43
2022-11-02T03:50:33.179Z,1.45
2022-11-02T03:53:20.989Z,0.70
2022-11-02T03:55:55.529Z,0.65
2022-11-02T03:58:22.010Z,0.82
2022-11-02T04:00:56.756Z,0.90
2022-11-02T04:03:24.260Z,1.15
2022-11-02T04:05:50.916Z,0.70
2022-11-02T04:08:23.130Z,0.45
2022-11-02T04:11:08.730Z,0.73
2022-11-02T04:13:54.216Z,0.60
2022-11-02T04:16:27.572Z,0.60
2022-11-02T04:21:39.951Z,0.55
2022-11-02T04:24:25.137Z,0.90
2022-11-02T04:26:51.600Z,0.50
2022-11-02T04:29:18.102Z,0.38
2022-11-02T04:31:44.518Z,0.45
2022-11-02T04:34:11.010Z,0.65
2022-11-02T04:36:37.626Z,0.60
2022-11-02T04:39:04.177Z,0.50
2022-11-02T04:41:42.499Z,0.60
2022-11-02T04:44:09.656Z,0.50
2022-11-02T04:46:37.060Z,0.57
2022-11-02T04:49:03.589Z,0.60
2022-11-02T04:51:31.108Z,0.65
2022-11-02T04:53:58.409Z,0.40
2022-11-02T04:56:25.352Z,0.60
2022-11-02T04:58:52.997Z,0.50
2022-11-02T05:01:20.355Z,0.63
2022-11-02T05:03:48.970Z,0.60
2022-11-02T05:06:16.410Z,0.40
2022-11-02T05:08:42.868Z,0.40
2022-11-02T05:11:10.409Z,0.80
2022-11-02T05:13:37.574Z,0.90
2022-11-02T05:16:04.814Z,0.40
2022-11-02T05:18:31.290Z,0.50
2022-11-02T05:20:58.808Z,0.57
2022-11-02T05:23:25.521Z,0.50
2022-11-02T05:25:55.954Z,0.60
2022-11-02T05:28:22.545Z,0.50
2022-11-02T05:30:49.091Z,0.50
2022-11-02T05:33:15.890Z,0.40
2022-11-02T05:35:42.770Z,0.40
2022-11-02T05:38:09.295Z,0.63
2022-11-02T05:40:38.109Z,0.47
2022-11-02T05:43:05.257Z,0.77
2022-11-02T05:45:32.068Z,0.43
2022-11-02T05:48:02.040Z,0.60
2022-11-02T05:50:28.587Z,0.35
2022-11-02T05:52:55.335Z,0.47
2022-11-02T05:55:22.006Z,0.38
2022-11-02T05:57:52.739Z,0.40
2022-11-02T06:00:19.703Z,0.40
2022-11-02T06:02:46.566Z,0.60
2022-11-02T06:05:13.514Z,0.63
2022-11-02T06:07:40.134Z,0.50
2022-11-02T06:10:07.138Z,0.70
2022-11-02T06:12:33.629Z,0.63
2022-11-02T06:15:00.104Z,0.57
2022-11-02T06:17:26.652Z,0.60
2022-11-02T06:19:53.152Z,0.30
2022-11-02T06:22:19.686Z,0.65
2022-11-02T06:24:46.173Z,0.50
2022-11-02T06:27:12.702Z,0.50
2022-11-02T06:29:39.141Z,0.60
2022-11-02T06:32:05.613Z,0.47
2022-11-02T06:34:32.087Z,0.60
2022-11-02T06:36:58.534Z,0.43
2022-11-02T06:39:25.123Z,0.30
2022-11-02T06:41:53.239Z,0.32
2022-11-02T06:44:19.776Z,0.40
2022-11-02T06:46:46.235Z,0.38
2022-11-02T06:49:12.715Z,0.60
2022-11-02T06:51:39.153Z,0.40
2022-11-02T06:54:08.635Z,0.47
2022-11-02T06:56:35.468Z,0.40
2022-11-02T06:59:01.954Z,0.40
2022-11-02T07:01:28.583Z,0.40
2022-11-02T07:03:55.165Z,0.40
2022-11-02T07:06:21.655Z,0.40
2022-11-02T07:08:48.272Z,0.35
2022-11-02T07:11:16.417Z,0.73
2022-11-02T07:13:43.067Z,0.50
2022-11-02T07:16:09.665Z,0.75
2022-11-02T07:18:36.402Z,0.93
2022-11-02T07:21:02.942Z,0.88
2022-11-02T07:23:29.767Z,0.68
2022-11-02T07:25:56.237Z,0.90
2022-11-02T07:28:22.731Z,0.50
2022-11-02T07:30:49.245Z,0.60
2022-11-02T07:33:15.970Z,0.30
2022-11-02T07:35:42.535Z,0.45
2022-11-02T07:38:09.760Z,0.70
2022-11-02T07:40:36.465Z,0.63
2022-11-02T07:43:03.540Z,0.43
2022-11-02T07:45:30.446Z,0.77
2022-11-02T07:47:56.941Z,0.50
2022-11-02T07:50:24.359Z,0.68
2022-11-02T07:52:51.944Z,0.57
2022-11-02T07:55:19.447Z,0.77
2022-11-02T07:57:55.848Z,0.45
2022-11-02T08:00:22.713Z,0.40
2022-11-02T08:02:49.313Z,0.57
2022-11-02T08:05:15.917Z,0.43
2022-11-02T08:07:42.386Z,0.30
2022-11-02T08:10:09.030Z,0.60
2022-11-02T08:12:35.486Z,0.60
2022-11-02T08:15:07.202Z,0.60
2022-11-02T08:17:34.134Z,0.45
2022-11-02T08:20:00.587Z,0.55
2022-11-02T08:22:27.435Z,0.43
2022-11-02T08:24:53.908Z,0.50
2022-11-02T08:27:20.683Z,0.40
2022-11-02T08:29:47.189Z,0.60
2022-11-02T08:32:13.700Z,0.82
2022-11-02T08:34:40.149Z,0.45
2022-11-02T08:37:07.343Z,0.38
2022-11-02T08:39:33.821Z,0.50
2022-11-02T08:42:00.312Z,0.38
2022-11-02T08:44:26.751Z,0.75
2022-11-02T08:49:21.271Z,0.65
2022-11-02T08:51:47.924Z,0.57
2022-11-02T08:54:14.525Z,0.60
2022-11-02T08:56:41.150Z,0.60
2022-11-02T08:59:08.339Z,0.55
2022-11-02T09:01:34.873Z,1.58
2022-11-02T09:04:01.402Z,1.10
2022-11-02T09:06:27.888Z,1.15
2022-11-02T09:08:57.890Z,0.68
2022-11-02T09:11:25.586Z,0.77
2022-11-02T09:13:56.670Z,0.60
2022-11-02T09:16:23.662Z,0.80
2022-11-02T09:18:50.152Z,0.70
2022-11-02T09:21:16.595Z,0.90
2022-11-02T09:23:43.170Z,0.68
2022-11-02T09:26:09.643Z,1.08
2022-11-02T09:28:36.191Z,0.82
2022-11-02T09:31:06.020Z,1.70
2022-11-02T09:33:36.298Z,0.70
2022-11-02T09:36:03.995Z,0.93
2022-11-02T09:38:30.897Z,0.90
2022-11-02T09:41:03.433Z,1.08
2022-11-02T09:43:36.119Z,1.10
2022-11-02T09:46:08.191Z,1.25
2022-11-02T09:48:36.651Z,1.27
2022-11-02T09:51:11.906Z,1.73
2022-11-02T09:53:51.500Z,1.27
2022-11-02T09:56:19.962Z,1.40
2022-11-02T09:58:49.429Z,1.60
2022-11-02T10:01:45.225Z,1.48
2022-11-02T10:04:25.518Z,1.25
2022-11-02T10:06:56.258Z,1.50
2022-11-02T10:09:28.443Z,1.75
2022-11-02T10:11:54.904Z,1.40
2022-11-02T10:14:27.388Z,2.00
2022-11-02T10:17:14.123Z,1.38
2022-11-02T10:19:41.211Z,1.50
2022-11-02T10:22:10.443Z,1.30
2022-11-02T10:24:42.762Z,1.55
2022-11-02T10:27:17.293Z,2.58
2022-11-02T10:29:55.451Z,1.90
2022-11-02T10:32:22.105Z,1.65
2022-11-02T10:34:58.870Z,1.50
2022-11-02T10:37:35.321Z,2.05
2022-11-02T10:40:14.030Z,1.80
2022-11-02T10:42:59.390Z,1.52
2022-11-02T10:45:38.206Z,1.10
2022-11-02T10:48:11.984Z,1.90
2022-11-02T10:50:44.381Z,1.50
2022-11-02T10:53:39.948Z,1.45
2022-11-02T10:56:04.259Z,1.63
2022-11-02T10:58:32.554Z,1.45
2022-11-02T11:01:09.738Z,1.13
2022-11-02T11:03:56.149Z,1.67
2022-11-02T11:06:27.925Z,2.70
2022-11-02T11:08:58.974Z,1.55
2022-11-02T11:11:36.798Z,1.83
2022-11-02T11:16:55.446Z,2.17
2022-11-02T11:22:22.435Z,1.38
2022-11-02T11:24:48.904Z,1.98
2022-11-02T11:27:15.393Z,1.63
2022-11-02T11:29:46.399Z,1.90
2022-11-02T11:32:17.198Z,1.63
2022-11-02T11:34:44.766Z,1.67
2022-11-02T11:37:12.652Z,1.38
2022-11-02T11:39:40.093Z,1.70
2022-11-02T11:42:14.460Z,1.63
2022-11-02T11:44:44.409Z,2.10
2022-11-02T11:47:11.006Z,3.42
2022-11-02T11:50:13.948Z,2.78
2022-11-02T11:52:31.634Z,2.35
2022-11-02T11:54:59.677Z,2.33
2022-11-02T11:57:28.162Z,3.08
2022-11-02T11:59:58.885Z,2.25
2022-11-02T12:02:28.275Z,2.00
2022-11-02T12:04:58.802Z,2.50
2022-11-02T12:07:34.806Z,2.78
2022-11-02T12:10:08.090Z,2.75
2022-11-02T12:13:07.350Z,2.22
2022-11-02T12:15:39.954Z,2.60
2022-11-02T12:18:25.047Z,2.85
2022-11-02T12:21:10.362Z,2.80
2022-11-02T12:24:00.396Z,2.53
2022-11-02T12:26:45.890Z,2.55
2022-11-02T12:29:12.318Z,2.53
2022-11-02T12:31:40.875Z,2.20
2022-11-02T12:34:25.981Z,2.33
2022-11-02T12:37:26.615Z,2.35
2022-11-02T12:39:51.402Z,3.63
2022-11-02T12:42:43.118Z,2.25
2022-11-02T12:45:26.551Z,3.60
2022-11-02T12:47:56.376Z,2.90
2022-11-02T12:50:25.997Z,1.85
2022-11-02T12:52:52.459Z,2.83
2022-11-02T12:55:21.519Z,3.58
2022-11-02T12:57:48.428Z,2.58
2022-11-02T13:00:21.755Z,3.28
2022-11-02T13:03:07.622Z,2.47
2022-11-02T13:05:42.943Z,2.13
2022-11-02T13:08:09.670Z,2.10
2022-11-02T13:10:40.557Z,3.38
2022-11-02T13:13:12.587Z,2.97
2022-11-02T13:15:39.433Z,3.08
2022-11-02T13:18:11.440Z,3.45
2022-11-02T13:20:49.698Z,3.85
2022-11-02T13:23:28.337Z,4.20
2022-11-02T13:25:57.199Z,4.05
2022-11-02T13:28:39.214Z,3.15
2022-11-02T13:31:12.757Z,3.63
2022-11-02T13:36:06.190Z,3.05
2022-11-02T13:38:35.487Z,4.25
2022-11-02T13:41:20.823Z,4.85
2022-11-02T13:44:03.274Z,3.90
2022-11-02T13:46:35.954Z,3.88
2022-11-02T13:49:22.674Z,4.05
2022-11-02T13:51:49.383Z,3.83
2022-11-02T13:54:27.643Z,5.50
2022-11-02T13:56:55.636Z,5.65
2022-11-02T13:59:43.396Z,4.28
2022-11-02T14:02:15.967Z,4.25
2022-11-02T14:04:43.204Z,4.97
2022-11-02T14:07:20.584Z,4.38
2022-11-02T14:09:47.345Z,5.20
2022-11-02T14:12:13.885Z,6.35
2022-11-02T14:14:40.496Z,7.97
2022-11-02T14:17:12.136Z,7.65
2022-11-02T14:20:04.774Z,5.97
2022-11-02T14:22:31.921Z,5.60
2022-11-02T14:25:07.701Z,5.07
2022-11-02T14:27:34.301Z,5.05
2022-11-02T14:30:00.817Z,5.13
2022-11-02T14:32:34.893Z,4.82
2022-11-02T14:35:13.397Z,6.60
2022-11-02T14:37:57.628Z,5.88
2022-11-02T14:40:24.390Z,6.95
2022-11-02T14:43:00.045Z,5.57
2022-11-02T14:45:29.506Z,5.75
2022-11-02T14:47:57.656Z,6.90
2022-11-02T14:50:25.168Z,5.82
2022-11-02T14:52:57.940Z,5.57
2022-11-02T14:55:34.921Z,7.20
2022-11-02T14:58:10.664Z,6.78
2022-11-02T15:00:39.829Z,6.30
2022-11-02T15:03:08.268Z,7.38
2022-11-02T15:05:39.852Z,7.93
2022-11-02T15:08:20.355Z,8.40
2022-11-02T15:10:47.043Z,7.45
2022-11-02T15:13:19.706Z,9.20
2022-11-02T15:15:46.521Z,9.48
2022-11-02T15:18:23.053Z,6.75
2022-11-02T15:21:10.175Z,8.43
2022-11-02T15:23:48.882Z,11.52
2022-11-02T15:26:29.167Z,12.32
2022-11-02T15:28:57.174Z,10.13
2022-11-02T15:31:26.389Z,8.25
2022-11-02T15:34:04.174Z,8.27
2022-11-02T15:36:33.619Z,9.55
2022-11-02T15:39:02.372Z,9.00
2022-11-02T15:41:45.500Z,8.85
2022-11-02T15:44:30.886Z,8.38
2022-11-02T15:47:09.120Z,8.38
2022-11-02T15:49:53.715Z,7.78
2022-11-02T15:53:08.661Z,6.68
2022-11-02T15:55:32.426Z,7.93
2022-11-02T15:57:59.107Z,8.18
2022-11-02T16:00:30.397Z,8.25
2022-11-02T16:03:07.128Z,9.60
2022-11-02T16:05:41.557Z,7.90
2022-11-02T16:08:22.306Z,7.47
2022-11-02T16:10:49.260Z,10.15
2022-11-02T16:13:17.529Z,9.18
2022-11-02T16:15:44.637Z,9.75
2022-11-02T16:18:23.263Z,9.70
2022-11-02T16:20:49.981Z,8.05
2022-11-02T16:23:22.151Z,9.15
2022-11-02T16:25:50.206Z,9.45
2022-11-02T16:28:36.881Z,8.20
2022-11-02T16:31:18.545Z,8.05
2022-11-02T16:33:47.699Z,9.35
2022-11-02T16:36:15.922Z,7.32
2022-11-02T16:38:47.338Z,8.90
2022-11-02T16:41:14.713Z,8.32
2022-11-02T16:43:45.823Z,9.48
2022-11-02T16:46:14.590Z,9.43
2022-11-02T16:49:01.882Z,6.88
2022-11-02T16:51:28.482Z,7.95
2022-11-02T16:53:54.923Z,8.52
2022-11-02T16:56:31.363Z,7.82
2022-11-02T16:59:05.235Z,7.70
2022-11-02T17:03:58.195Z,7.78
2022-11-02T17:06:24.659Z,9.60
2022-11-02T17:08:52.754Z,8.98
2022-11-02T17:11:19.585Z,7.55
2022-11-02T17:13:51.383Z,7.00
2022-11-02T17:16:17.962Z,6.72
2022-11-02T17:18:44.487Z,7.45
2022-11-02T17:21:13.974Z,7.40
2022-11-02T17:23:42.337Z,6.97
2022-11-02T17:26:14.781Z,6.57
2022-11-02T17:28:43.434Z,9.27
2022-11-02T17:31:20.328Z,7.40
2022-11-02T17:33:47.142Z,5.38
2022-11-02T17:36:14.163Z,5.72
2022-11-02T17:38:40.713Z,6.25
2022-11-02T17:41:25.869Z,5.35
2022-11-02T17:43:52.407Z,4.35
2022-11-02T17:46:18.871Z,5.75
2022-11-02T17:48:45.349Z,4.78
2022-11-02T17:51:15.462Z,5.47
2022-11-02T17:53:42.229Z,6.50
2022-11-02T17:56:09.957Z,7.03
2022-11-02T17:58:36.660Z,6.18
2022-11-02T18:01:06.229Z,7.32
2022-11-02T18:03:32.772Z,6.32
2022-11-02T18:06:00.210Z,5.53
2022-11-02T18:08:27.315Z,5.45
2022-11-02T18:10:53.864Z,6.05
2022-11-02T18:13:21.849Z,4.80
2022-11-02T18:15:48.578Z,4.50
2022-11-02T18:18:15.071Z,3.13
2022-11-02T18:20:42.227Z,13.02
2022-11-02T18:23:16.757Z,10.18
2022-11-02T18:25:43.393Z,30.05
2022-11-02T18:28:09.846Z,6.47
2022-11-02T18:30:36.343Z,30.20
2022-11-02T18:33:03.010Z,5.85
2022-11-02T18:35:29.470Z,13.80
2022-11-02T18:37:55.963Z,5.05
2022-11-02T18:40:22.440Z,6.30
2022-11-02T18:42:48.996Z,4.50
2022-11-02T18:45:16.152Z,7.40
2022-11-02T18:47:42.823Z,3.50
2022-11-02T18:50:10.941Z,2.63
2022-11-02T18:52:37.433Z,3.70
2022-11-02T18:55:05.311Z,4.20
2022-11-02T18:57:32.039Z,2.75
2022-11-02T18:59:59.358Z,3.05
2022-11-02T19:02:25.906Z,5.07
2022-11-02T19:04:52.419Z,4.30
2022-11-02T19:07:37.690Z,3.40
2022-11-02T19:10:04.400Z,3.30
2022-11-02T19:12:31.278Z,2.78
2022-11-02T19:14:58.255Z,3.35
2022-11-02T19:17:25.406Z,3.20
2022-11-02T19:19:52.069Z,3.92
2022-11-02T19:22:19.807Z,5.03
2022-11-02T19:24:46.313Z,4.10
2022-11-02T19:27:19.836Z,3.15
2022-11-02T19:29:46.341Z,3.08
2022-11-02T19:32:12.997Z,3.22
2022-11-02T19:34:39.770Z,2.85
2022-11-02T19:37:07.051Z,2.88
2022-11-02T19:39:33.610Z,3.22
2022-11-02T19:42:00.181Z,3.13
2022-11-02T19:44:26.768Z,2.35
2022-11-02T19:46:53.291Z,3.08
2022-11-02T19:49:19.848Z,3.17
2022-11-02T19:51:46.309Z,3.25
2022-11-02T19:54:13.022Z,4.07
2022-11-02T19:56:39.512Z,3.10
2022-11-02T19:59:06.218Z,2.35
2022-11-02T20:01:34.014Z,2.63
2022-11-02T20:04:00.877Z,12.13
2022-11-02T20:06:47.606Z,18.55
2022-11-02T20:09:15.822Z,7.28
2022-11-02T20:11:44.843Z,3.80
2022-11-02T20:14:11.977Z,4.10
2022-11-02T20:16:38.807Z,3.00
2022-11-02T20:19:05.809Z,3.40
2022-11-02T20:21:36.922Z,4.32
2022-11-02T20:24:08.133Z,3.10
2022-11-02T20:26:35.677Z,2.50
2022-11-02T20:29:02.822Z,3.28
2022-11-02T20:31:32.039Z,2.63
2022-11-02T20:33:58.801Z,4.03
2022-11-02T20:36:26.871Z,3.40
2022-11-02T20:38:54.301Z,3.67
2022-11-02T20:41:21.522Z,3.72
2022-11-02T20:43:49.019Z,4.80
2022-11-02T20:49:20.077Z,3.33
2022-11-02T20:51:49.943Z,4.15
2022-11-02T20:54:18.395Z,8.27
2022-11-02T20:56:44.884Z,6.55
2022-11-02T20:59:11.514Z,5.72
2022-11-02T21:01:38.101Z,5.10
2022-11-02T21:04:04.673Z,5.43
2022-11-02T21:06:31.100Z,5.78
2022-11-02T21:08:59.598Z,7.93
2022-11-02T21:11:45.377Z,7.55
2022-11-02T21:14:12.192Z,5.55
2022-11-02T21:16:38.768Z,6.10
2022-11-02T21:19:05.361Z,5.63
2022-11-02T21:21:31.839Z,5.55
2022-11-02T21:23:58.436Z,4.47
2022-11-02T21:26:25.082Z,4.53
2022-11-02T21:28:51.564Z,4.47
2022-11-02T21:31:20.352Z,6.90
2022-11-02T21:33:47.845Z,5.53
2022-11-02T21:36:15.142Z,4.70
2022-11-02T21:38:42.045Z,4.18
2022-11-02T21:41:08.952Z,5.55
2022-11-02T21:43:36.974Z,4.38
2022-11-02T21:46:04.305Z,5.13
2022-11-02T21:48:32.065Z,4.47
2022-11-02T21:51:01.315Z,4.38
2022-11-02T21:53:27.843Z,3.75
2022-11-02T21:55:58.050Z,3.63
2022-11-02T21:58:24.529Z,3.47
2022-11-02T22:01:14.927Z,4.60
2022-11-02T22:03:41.473Z,4.35
2022-11-02T22:06:07.954Z,3.58
2022-11-02T22:08:40.477Z,3.05
2022-11-02T22:11:07.422Z,2.90
2022-11-02T22:13:34.593Z,2.85
2022-11-02T22:16:11.430Z,3.17
2022-11-02T22:18:37.956Z,2.28
2022-11-02T22:21:04.661Z,2.85
2022-11-02T22:23:31.139Z,2.85
2022-11-02T22:25:58.757Z,2.40
2022-11-02T22:28:28.360Z,3.13
2022-11-02T22:30:54.826Z,1.95
2022-11-02T22:33:22.050Z,1.95
2022-11-02T22:35:48.827Z,1.85
2022-11-02T22:38:33.955Z,2.50
2022-11-02T22:41:01.125Z,1.92
2022-11-02T22:43:27.634Z,1.80
2022-11-02T22:46:06.775Z,1.98
2022-11-02T22:48:33.697Z,2.42
2022-11-02T22:51:00.159Z,1.80
2022-11-02T22:53:29.418Z,1.13
2022-11-02T22:55:56.957Z,1.60
2022-11-02T22:58:23.447Z,1.40
2022-11-02T23:00:50.024Z,1.65
2022-11-02T23:03:16.538Z,1.30
2022-11-02T23:05:43.890Z,1.30
2022-11-02T23:08:11.066Z,1.30
2022-11-02T23:11:02.453Z,1.30
2022-11-02T23:13:29.026Z,1.27
2022-11-02T23:16:23.569Z,1.80
2022-11-02T23:21:35.621Z,1.38
2022-11-02T23:24:20.918Z,1.55
2022-11-02T23:26:47.500Z,1.05
2022-11-02T23:29:32.446Z,1.67
2022-11-02T23:32:17.557Z,1.15
2022-11-02T23:35:03.941Z,1.40
2022-11-02T23:37:30.693Z,0.98
2022-11-02T23:39:57.201Z,0.90
2022-11-02T23:42:24.023Z,1.10
2022-11-02T23:44:50.491Z,0.90
2022-11-02T23:47:16.989Z,1.08
2022-11-02T23:49:43.598Z,1.20
2022-11-02T23:52:32.050Z,0.98
2022-11-02T23:55:17.193Z,1.27
2022-11-02T23:57:43.657Z,1.52
